Latest Weather Observations for Jacup

IDW60801

Issued at 3:34 pm WST Wednesday 24 May 2017 (issued every 30 minutes, with the page automatically refreshed every 10 minutes)

About weather observations | Map of weather stations | Latest weather observations for WA | Other Formats
Station Details ID: 010905 Name: JACUP Lat: -33.89 Lon: 119.11 Height: 305.0 m
Data from the previous 72 hours. | See also: Recent months at Jacup
Date/Time
WST
Temp
°C
App
Temp
°C
Dew
Point
°C
Rel
Hum
%
Delta-T
°C
Wind Press
QNH
hPa
Press
MSL
hPa
Rain since
9am
mm
Dir  Spd
km/h
Gust
km/h
Spd
kts
Gust
kts
24/03:30pm 16.9 12.0 7.0 52 5.0 W 22 32 12 17 1019.8 1019.5 0.0
24/03:00pm 16.8 11.9 6.9 52 5.0 W 22 32 12 17 1019.5 1019.2 0.0
24/02:30pm 17.3 12.2 7.6 53 5.0 W 24 32 13 17 1019.4 1019.1 0.0
24/02:00pm 16.8 12.4 7.2 53 4.8 W 20 33 11 18 1019.5 1019.2 0.0
24/01:30pm 16.7 11.7 8.1 57 4.4 W 24 35 13 19 1019.4 1019.1 0.0
24/01:00pm 17.0 13.0 9.2 60 4.1 W 20 33 11 18 1019.6 1019.3 0.0
24/12:30pm 16.6 12.7 9.3 62 3.8 W 20 30 11 16 1019.7 1019.4 0.0
24/12:00pm 16.3 11.7 9.5 64 3.6 W 24 37 13 20 1020.0 1019.7 0.0
24/11:30am 17.0 12.8 9.9 63 3.8 W 22 37 12 20 1020.3 1020.1 0.0
24/11:00am 16.1 12.6 10.8 71 2.9 WNW 20 35 11 19 1020.6 1020.4 0.0
24/10:30am 15.1 12.0 11.5 79 2.0 WNW 19 30 10 16 1020.9 1020.6 0.0
24/10:00am 13.9 11.3 12.1 89 1.0 WNW 17 26 9 14 1021.3 1021.0 0.0
24/09:30am 12.7 10.0 11.8 94 0.5 WNW 17 24 9 13 1021.5 1021.2 0.0
24/09:00am 12.3 9.5 11.2 93 0.6 WNW 17 24 9 13 1021.3 1021.0 0.8
24/08:30am 12.3 9.0 11.0 92 0.7 WNW 19 30 10 16 1021.2 1020.9 0.6
24/08:00am 12.2 9.4 11.3 94 0.5 WNW 17 26 9 14 1020.7 1020.5 0.2
24/07:30am 10.9 8.9 10.0 94 0.5 NW 11 17 6 9 1020.4 1020.2 0.2
24/07:00am 10.1 7.9 9.2 94 0.5 NW 11 15 6 8 1020.3 1020.1 0.2
24/06:30am 10.7 8.2 9.8 94 0.5 WNW 13 20 7 11 1020.2 1019.9 0.2
24/06:00am 10.9 8.4 9.8 93 0.6 NW 13 20 7 11 1020.0 1019.7 0.2
24/05:30am 11.3 8.6 10.2 93 0.6 NW 15 20 8 11 1019.9 1019.6 0.2
24/05:00am 11.4 8.3 10.3 93 0.6 NW 17 28 9 15 1019.7 1019.4 0.2
24/04:30am 11.9 8.4 11.0 94 0.5 NW 20 32 11 17 1019.5 1019.2 0.2
24/04:00am 11.3 8.6 10.2 93 0.6 WNW 15 22 8 12 1019.5 1019.2 0.2
24/03:30am 11.4 9.1 10.3 93 0.6 WNW 13 20 7 11 1019.6 1019.3 0.2
24/03:00am 11.5 9.2 10.4 93 0.6 NW 13 19 7 10 1019.8 1019.5 0.2
24/02:30am 11.5 9.2 10.4 93 0.6 NW 13 17 7 9 1019.7 1019.4 0.2
24/02:00am 11.2 9.2 10.0 92 0.6 NW 11 15 6 8 1019.9 1019.6 0.2
24/01:30am 11.2 9.5 9.8 91 0.7 NW 9 13 5 7 1019.9 1019.6 0.2
24/01:00am 11.5 9.4 9.8 89 0.9 NW 11 15 6 8 1020.0 1019.7 0.2
24/12:30am 11.8 10.1 9.7 87 1.1 NW 9 13 5 7 1020.0 1019.7 0.2
24/12:00am 12.0 9.9 9.6 85 1.2 NNW 11 17 6 9 1020.2 1019.9 0.2
 
Date/Time
WST
Temp
°C
App
Temp
°C
Dew
Point
°C
Rel
Hum
%
Delta-T
°C
Wind Press
QNH
hPa
Press
MSL
hPa
Rain since
9am
mm
Dir  Spd
km/h
Gust
km/h
Spd
kts
Gust
kts
23/11:30pm 12.3 9.7 9.5 83 1.4 NW 13 19 7 10 1020.4 1020.2 0.2
23/11:00pm 12.9 10.4 9.7 81 1.7 NNW 13 17 7 9 1020.6 1020.4 0.2
23/10:30pm 13.9 11.6 10.3 79 1.9 NNW 13 17 7 9 1020.7 1020.5 0.2
23/10:00pm 13.6 11.2 10.2 80 1.8 NNW 13 15 7 8 1021.0 1020.7 0.2
23/09:30pm 13.1 11.5 10.3 83 1.5 NW 9 13 5 7 1021.0 1020.7 0.2
23/09:00pm 12.3 10.6 9.7 84 1.3 NW 9 11 5 6 1021.0 1020.7 0.2
23/08:30pm 11.9 10.0 8.9 82 1.5 NW 9 11 5 6 1021.1 1020.8 0.2
23/08:00pm 12.6 11.0 8.9 78 1.9 WNW 7 11 4 6 1021.1 1020.8 0.2
23/07:30pm 14.0 12.6 9.6 75 2.3 WNW 7 11 4 6 1021.1 1020.8 0.2
23/07:00pm 14.6 12.9 9.8 73 2.5 WNW 9 13 5 7 1021.2 1020.9 0.2
23/06:30pm 14.8 13.1 9.8 72 2.6 WNW 9 13 5 7 1021.0 1020.7 0.2
23/06:00pm 15.0 13.3 9.8 71 2.7 WNW 9 15 5 8 1020.7 1020.5 0.2
23/05:30pm 15.3 13.6 9.9 70 2.9 WNW 9 15 5 8 1020.5 1020.3 0.2
23/05:00pm 15.7 12.8 9.8 68 3.1 WNW 15 24 8 13 1020.4 1020.2 0.2
23/04:30pm 16.1 13.2 9.5 65 3.5 WNW 15 20 8 11 1020.2 1019.9 0.2
23/04:00pm 16.4 13.0 9.3 63 3.7 W 17 26 9 14 1020.0 1019.7 0.2
23/03:30pm 16.7 13.4 9.6 63 3.8 WNW 17 26 9 14 1019.8 1019.5 0.2
23/03:00pm 17.0 13.7 9.4 61 4.0 WNW 17 24 9 13 1019.7 1019.4 0.2
23/02:30pm 16.8 13.0 9.2 61 4.0 WNW 19 28 10 15 1019.8 1019.5 0.2
23/02:00pm 16.7 13.0 9.4 62 3.8 W 19 30 10 16 1019.9 1019.6 0.2
23/01:30pm 16.5 12.5 9.2 62 3.8 WNW 20 32 11 17 1020.0 1019.7 0.2
23/01:00pm 16.5 12.7 9.2 62 3.8 W 19 30 10 16 1020.1 1019.8 0.2
23/12:30pm 16.3 12.5 9.0 62 3.8 W 19 30 10 16 1020.2 1019.9 0.2
23/12:00pm 16.2 12.4 9.2 63 3.7 WNW 19 28 10 15 1020.5 1020.3 0.2
23/11:30am 15.8 11.4 9.0 64 3.5 W 22 32 12 17 1021.0 1020.7 0.2
23/11:00am 15.6 11.7 9.5 67 3.2 W 20 30 11 16 1021.4 1021.1 0.2
23/10:30am 16.5 13.1 10.6 68 3.2 W 19 30 10 16 1021.6 1021.3 0.2
23/10:00am 14.3 10.6 10.1 76 2.2 WNW 20 32 11 17 1021.8 1021.5 0.2
23/09:30am 13.9 10.1 9.9 77 2.1 WNW 20 30 11 16 1021.9 1021.6 0.2
23/09:00am 13.4 10.0 10.6 83 1.5 WNW 19 30 10 16 1021.7 1021.4 0.0
23/08:30am 11.5 7.9 9.9 90 0.8 WNW 19 26 10 14 1021.7 1021.4 0.0
23/08:00am 11.3 8.2 10.2 93 0.6 WNW 17 24 9 13 1021.2 1020.9 0.0
23/07:30am 10.4 7.8 9.3 93 0.6 WNW 13 20 7 11 1020.9 1020.6 0.0
23/07:00am 10.0 6.9 8.9 93 0.5 WNW 15 22 8 12 1020.5 1020.3 0.0
23/06:30am 10.1 7.0 9.0 93 0.6 WNW 15 22 8 12 1020.3 1020.1 0.0
23/06:00am 10.0 6.9 8.9 93 0.5 WNW 15 24 8 13 1020.3 1020.1 0.0
23/05:30am 9.9 6.4 8.8 93 0.5 WNW 17 26 9 14 1020.0 1019.7 0.0
23/05:00am 9.7 6.5 8.6 93 0.5 WNW 15 20 8 11 1019.9 1019.6 0.0
23/04:30am 9.7 6.9 8.6 93 0.5 WNW 13 19 7 10 1019.8 1019.5 0.0
23/04:00am 9.3 6.0 8.2 93 0.5 WNW 15 20 8 11 1019.5 1019.2 0.0
23/03:30am 8.8 5.8 7.6 92 0.6 WNW 13 22 7 12 1019.3 1019.0 0.0
23/03:00am 9.0 5.6 7.8 92 0.6 WNW 15 22 8 12 1019.3 1019.0 0.0
23/02:30am 9.3 5.6 7.9 91 0.7 WNW 17 22 9 12 1019.0 1018.7 0.0
23/02:00am 9.5 5.8 8.1 91 0.7 WNW 17 28 9 15 1018.8 1018.5 0.0
23/01:30am 9.6 6.7 8.0 90 0.8 WNW 13 20 7 11 1018.8 1018.5 0.0
23/01:00am 9.9 7.0 8.0 88 0.9 WNW 13 19 7 10 1019.1 1018.8 0.0
23/12:30am 10.2 7.6 7.8 85 1.2 WNW 11 17 6 9 1019.1 1018.8 0.0
23/12:00am 11.3 8.0 8.2 81 1.5 W 15 24 8 13 1019.3 1019.0 0.0
 
Date/Time
WST
Temp
°C
App
Temp
°C
Dew
Point
°C
Rel
Hum
%
Delta-T
°C
Wind Press
QNH
hPa
Press
MSL
hPa
Rain since
9am
mm
Dir  Spd
km/h
Gust
km/h
Spd
kts
Gust
kts
22/11:30pm 11.6 8.0 8.3 80 1.6 W 17 26 9 14 1019.4 1019.1 0.0
22/11:00pm 10.8 8.2 7.7 81 1.5 W 11 17 6 9 1019.6 1019.3 0.0
22/10:30pm 11.1 8.6 8.1 82 1.5 W 11 15 6 8 1019.7 1019.4 0.0
22/10:00pm 10.9 8.3 7.6 80 1.6 W 11 13 6 7 1019.7 1019.4 0.0
22/09:30pm 11.5 9.0 8.2 80 1.6 W 11 19 6 10 1019.6 1019.3 0.0
22/09:00pm 11.4 9.3 8.4 82 1.5 W 9 13 5 7 1019.7 1019.4 0.0
22/08:30pm 11.0 8.9 8.1 82 1.4 W 9 11 5 6 1019.4 1019.1 0.0
22/08:00pm 11.7 8.8 8.0 78 1.8 W 13 17 7 9 1019.2 1018.9 0.0
22/07:30pm 12.1 9.1 7.6 74 2.2 W 13 20 7 11 1019.0 1018.7 0.0
22/07:00pm 12.8 9.0 7.7 71 2.5 W 17 22 9 12 1019.0 1018.7 0.0
22/06:30pm 13.1 9.6 7.1 67 3.0 W 15 20 8 11 1018.6 1018.3 0.0
22/06:00pm 13.6 9.0 6.7 63 3.4 W 20 30 11 16 1018.3 1018.0 0.0
22/05:30pm 13.9 9.8 6.3 60 3.7 W 17 22 9 12 1017.9 1017.6 0.0
22/05:00pm 13.8 10.1 6.2 60 3.7 W 15 22 8 12 1017.7 1017.4 0.0
22/04:30pm 14.0 10.7 6.6 61 3.6 WNW 13 20 7 11 1017.3 1017.0 0.0
22/04:00pm 14.2 9.6 6.6 60 3.7 W 20 30 11 16 1016.9 1016.6 0.0
22/03:30pm 14.4 9.0 6.3 58 4.0 W 24 35 13 19 1016.7 1016.4 0.0
22/03:00pm 14.6 9.2 6.4 58 4.0 W 24 35 13 19 1016.5 1016.2 0.0
22/02:30pm 14.6 9.9 6.2 57 4.1 W 20 32 11 17 1016.2 1015.9 0.0
22/02:00pm 14.3 9.1 5.7 56 4.1 W 22 37 12 20 1016.0 1015.7 0.0
22/01:30pm 15.8 10.4 6.3 53 4.7 W 24 37 13 20 1015.9 1015.6 0.0
22/01:00pm 15.2 9.7 5.7 53 4.6 W 24 37 13 20 1016.0 1015.7 0.0
22/12:30pm 14.2 8.3 5.6 56 4.1 WSW 26 37 14 20 1016.2 1015.9 0.0
22/12:00pm 13.9 8.3 5.3 56 4.1 WSW 24 35 13 19 1016.3 1016.0 0.0
22/11:30am 14.8 9.7 6.1 56 4.2 WSW 22 35 12 19 1016.5 1016.2 0.0
22/11:00am 13.7 8.1 5.6 58 3.9 WSW 24 35 13 19 1016.6 1016.3 0.0
22/10:30am 13.3 7.8 5.7 60 3.6 W 24 37 13 20 1016.6 1016.3 0.0
22/10:00am 12.1 7.0 5.9 66 2.9 W 22 35 12 19 1016.6 1016.3 0.0
22/09:30am 10.5 4.9 5.5 71 2.3 W 24 35 13 19 1016.6 1016.3 0.0
22/09:00am 9.7 5.2 5.9 77 1.8 WNW 19 30 10 16 1016.5 1016.2 0.2
22/08:30am 8.2 3.6 5.8 85 1.1 WNW 19 26 10 14 1016.2 1015.9 0.2
22/08:00am 6.7 2.5 5.5 92 0.5 WNW 17 26 9 14 1015.7 1015.4 0.2
22/07:30am 5.4 0.9 4.4 93 0.4 WNW 17 20 9 11 1015.3 1015.0 0.2
22/07:00am 4.6 0.7 3.6 93 0.4 WNW 13 19 7 10 1014.9 1014.6 0.2
22/06:30am 4.7 0.1 3.7 93 0.4 WNW 17 20 9 11 1014.7 1014.3 0.2
22/06:00am 4.8 0.2 3.8 93 0.4 WNW 17 24 9 13 1014.3 1013.9 0.2
22/05:30am 4.9 0.7 3.9 93 0.4 WNW 15 24 8 13 1014.3 1013.9 0.2
22/05:00am 5.1 0.6 4.1 93 0.4 WNW 17 24 9 13 1013.9 1013.6 0.2
22/04:30am 5.0 0.4 3.8 92 0.5 WNW 17 26 9 14 1013.5 1013.2 0.2
22/04:00am 5.2 0.7 4.0 92 0.5 WNW 17 26 9 14 1013.3 1013.0 0.2
22/03:30am 5.2 0.7 4.0 92 0.5 WNW 17 24 9 13 1013.0 1012.7 0.0
22/03:00am 5.0 0.4 3.8 92 0.5 WNW 17 26 9 14 1012.9 1012.6 0.0
22/02:30am 4.8 0.5 3.5 91 0.5 WNW 15 22 8 12 1012.6 1012.3 0.0
22/02:00am 4.9 1.0 3.6 91 0.6 WNW 13 22 7 12 1012.4 1012.1 0.0
22/01:30am 4.6 0.7 3.3 91 0.5 WNW 13 20 7 11 1012.3 1012.0 0.0
22/01:00am 4.5 0.5 3.0 90 0.6 WNW 13 17 7 9 1012.1 1011.8 0.0
22/12:30am 4.6 0.6 3.1 90 0.6 WNW 13 17 7 9 1012.2 1011.9 0.0
22/12:00am 4.7 0.7 3.0 89 0.7 WNW 13 17 7 9 1012.0 1011.7 0.0
 
Date/Time
WST
Temp
°C
App
Temp
°C
Dew
Point
°C
Rel
Hum
%
Delta-T
°C
Wind Press
QNH
hPa
Press
MSL
hPa
Rain since
9am
mm
Dir  Spd
km/h
Gust
km/h
Spd
kts
Gust
kts
21/11:30pm 4.8 0.8 3.0 88 0.8 WNW 13 19 7 10 1011.7 1011.3 0.0
21/11:00pm 4.8 0.8 2.8 87 0.8 WNW 13 20 7 11 1011.6 1011.2 0.0
21/10:30pm 4.6 1.3 2.3 85 0.9 WNW 9 15 5 8 1011.6 1011.2 0.0
21/10:00pm 5.0 0.9 2.5 84 1.0 WNW 13 15 7 8 1011.5 1011.1 0.0
21/09:30pm 5.3 1.7 2.7 83 1.1 WNW 11 15 6 8 1011.4 1011.0 0.0
21/09:00pm 5.4 1.7 2.4 81 1.2 W 11 13 6 7 1011.2 1010.8 0.0
21/08:30pm 6.0 1.8 1.9 75 1.7 W 13 20 7 11 1010.8 1010.4 0.0
21/08:00pm 6.0 1.8 1.9 75 1.7 W 13 19 7 10 1010.3 1010.0 0.0
21/07:30pm 5.5 1.9 2.7 82 1.2 W 11 15 6 8 1010.0 1009.7 0.0
21/07:00pm 5.6 2.6 2.3 79 1.4 WNW 7 9 4 5 1009.6 1009.3 0.0
21/06:30pm 7.2 3.6 2.9 74 1.8 W 11 17 6 9 1009.1 1008.8 0.0
21/06:00pm 8.0 4.4 3.1 71 2.1 W 11 15 6 8 1008.5 1008.1 0.0
21/05:30pm 9.0 4.7 3.4 68 2.5 W 15 26 8 14 1008.1 1007.7 0.0
21/05:00pm 9.6 5.3 5.2 74 2.0 W 17 24 9 13 1007.7 1007.3 0.0
21/04:30pm 9.8 5.6 5.6 75 2.0 WSW 17 24 9 13 1007.4 1007.0 0.0
21/04:00pm 11.0 5.4 5.3 68 2.7 WSW 24 35 13 19 1006.7 1006.4 0.0

Other Formats:

Comma delimited format used in spreadsheet applications
http://www.bom.gov.au/fwo/IDW60801/IDW60801.95636.axf

JavaScript Object Notation format (JSON) in row-major order
http://www.bom.gov.au/fwo/IDW60801/IDW60801.95636.json